x

Long Key, Fl (lonf1) Weather Station

8:00pm - Sun 24th May 2015 All times are CDT. -4 hours from GMT.

  • Wind
    18mph, 22mph gusts
  • Sea Temp 86°f
  • Air Temp 82°f
  • Sea Pressure 1019.7mb
  • Long Key, Fl
  • Long Key, Fl

More Historic Weather Station data

Upgrade to MSW Pro to gain access to the past 30 days of data for over 8000 Wavebouys and Weather Stations around the globe.

Join Pro

Comparision Forecast

View Surf forecast
   
Sun 05/24 8:00pm 18 22 mph 1019.7mb 86f 82f
7:00pm 17 20 mph 1019.2mb 86f 82f
6:00pm 17 21 mph 1019.5mb 86f 83f
5:00pm 17 18 mph 1019.7mb 86f 83f
4:00pm 15 17 mph 1020.1mb 86f 83f
3:00pm 16 20 mph 1020.5mb 86f 82f
2:00pm 16 18 mph 1021.1mb 85f 82f
1:00pm 15 17 mph 1021.4mb 85f 82f
12:00pm 15 16 mph 1022mb 85f 82f
11:00am 13 16 mph 1022mb 84f 82f
10:00am 15 17 mph 1021.9mb 84f 82f
9:00am 15 17 mph 1021.6mb 84f 82f
8:00am 17 18 mph 1021.4mb 84f 82f
7:00am 18 22 mph 1020.8mb 84f 81f
6:00am 16 18 mph 1020.5mb 84f 81f
5:00am 16 18 mph 1020mb 85f 81f
4:00am 17 20 mph 1020mb 85f 81f
3:00am 20 22 mph 1020mb 85f 82f
2:00am 21 23 mph 1020.6mb 85f 82f
1:00am 21 22 mph 1021.3mb 86f 82f
12:00am 22 25 mph 1021.6mb 87f 83f
Sat 05/23 11:00pm 21 24 mph 1021.6mb 87f 83f
10:00pm 21 25 mph 1021.3mb 87f 83f
9:00pm 20 22 mph 1021mb 88f 83f
8:00pm 18 21 mph 1021.1mb 88f 83f
7:00pm 18 21 mph 1020.7mb 88f 83f
6:00pm 16 20 mph 1020.7mb 88f 83f
5:00pm 17 18 mph 1020.7mb 88f 83f
4:00pm 14 16 mph 1021.4mb 88f 83f
3:00pm 14 15 mph 1022mb 88f 83f
2:00pm 14 16 mph 1022.4mb 87f 83f
1:00pm 13 15 mph 1023mb 87f 83f
12:00pm 11 13 mph 1023.1mb 87f 83f
11:00am 10 11 mph 1023mb 86f 83f
10:00am 5 6 mph 1022.8mb 86f 80f
9:00am 9 10 mph 1022.4mb 86f 83f
8:00am 11 14 mph 1021.4mb 86f 82f
7:00am 9
mph
1020.8mb 86f 82f
6:00am 8 10 mph 1020.5mb 86f 82f
5:00am 9 10 mph 1020.1mb 87f 82f
4:00am 9 11 mph 1020mb 87f 82f
3:00am 8 9 mph 1020.2mb 87f 82f
2:00am 9 11 mph 1020.7mb 87f 82f
1:00am 8 9 mph 1021.1mb 87f 82f
12:00am 8 9 mph 1021.4mb 87f 82f
Fri 05/22 11:00pm 9 10 mph 1021.1mb 88f 82f
10:00pm 9 10 mph 1020.7mb 88f 82f
9:00pm 9 11 mph 1020.4mb 88f 81f
8:00pm 16 17 mph 1020.1mb 88f 82f
7:00pm 8 11 mph 1019.8mb 89f 84f
6:00pm 2 3 mph 1019.3mb 89f 85f
5:00pm 8 9 mph 1018.7mb 89f 83f
4:00pm 10 13 mph 1019mb 89f 83f
3:00pm 6 7 mph 1020mb 89f 83f
2:00pm 2 3 mph 1020mb 88f 85f
1:00pm  -  mph 1020mb 87f 83f
12:00pm 1 2 mph 1020.1mb 86f 82f
11:00am 3 6 mph 1019.8mb 86f 82f
10:00am 2 3 mph 1019.5mb 86f 81f
9:00am 9 10 mph 1019.2mb 86f 81f
8:00am 2
mph
1018.8mb 86f 82f
7:00am 5 6 mph 1018.5mb 86f 82f
6:00am 5 6 mph 1018mb 86f 82f
5:00am 8 9 mph 1017.2mb 86f 82f
4:00am 6
mph
1017.6mb 86f 83f
3:00am 5 7 mph 1017.3mb 86f 83f
2:00am 5 6 mph 1017.6mb 86f 83f
1:00am 7 8 mph 1018.1mb 87f 83f
12:00am 6 9 mph 1018.2mb 87f 83f
Thu 05/21 11:00pm 8 9 mph 1017.6mb 87f 83f
10:00pm 8 9 mph 1017mb 87f 83f
9:00pm 7
mph
1016.8mb 87f 83f
8:00pm 11 13 mph 1016.3mb 87f 83f
7:00pm 8 9 mph 1015.7mb 87f 83f
6:00pm 10 13 mph 1015.9mb 88f 83f
5:00pm 9 10 mph 1015.5mb 88f 83f
4:00pm 9 10 mph 1015.9mb 88f 83f
3:00pm 7 8 mph 1016.3mb 87f 83f
2:00pm 5 6 mph 1017mb 87f 82f
1:00pm 7 8 mph 1017.7mb 86f 83f
12:00pm 6 7 mph 1017.9mb 85f 82f
11:00am 8 9 mph 1017.9mb 85f 82f
10:00am 8 10 mph 1017.4mb 85f 81f
9:00am 8 9 mph 1017.1mb 85f 79f
8:00am 6 7 mph 1016.7mb 85f 82f
7:00am 6
mph
1016.4mb 85f 81f
6:00am 6 7 mph 1016.1mb 85f 81f
5:00am 7 9 mph 1016.1mb 85f 81f
4:00am 9 11 mph 1015.8mb 85f 81f
3:00am 9 10 mph 1016mb 85f 81f
2:00am 9 10 mph 1016.4mb 85f 81f